createdAt,value
2023-04-29T00:03:29.113Z,25.95
2023-04-29T00:08:31.047Z,23.55
2023-04-29T00:13:32.766Z,24.60
2023-04-29T00:18:34.505Z,23.80
2023-04-29T00:23:36.234Z,25.63
2023-04-29T00:28:37.967Z,26.38
2023-04-29T00:33:40.842Z,26.05
2023-04-29T00:38:42.640Z,24.88
2023-04-29T00:43:44.407Z,24.63
2023-04-29T00:48:46.086Z,28.13
2023-04-29T00:53:49.650Z,27.73
2023-04-29T00:58:52.693Z,26.98
2023-04-29T01:03:55.129Z,27.35
2023-04-29T01:09:04.621Z,26.40
2023-04-29T01:14:07.687Z,28.83
2023-04-29T01:19:37.294Z,27.52
2023-04-29T01:24:39.751Z,27.42
2023-04-29T01:30:27.243Z,27.45
2023-04-29T01:35:54.961Z,28.58
2023-04-29T01:41:13.531Z,29.17
2023-04-29T01:46:18.605Z,29.80
2023-04-29T01:51:21.862Z,29.95
2023-04-29T01:56:23.592Z,28.58
2023-04-29T02:01:36.880Z,28.65
2023-04-29T02:06:39.256Z,31.00
2023-04-29T02:11:41.208Z,32.35
2023-04-29T02:16:46.479Z,22.92
2023-04-29T02:21:49.339Z,10.77
2023-04-29T02:26:53.614Z,10.68
2023-04-29T02:31:55.652Z,9.65
2023-04-29T02:36:57.432Z,8.30
2023-04-29T02:41:59.188Z,7.72
2023-04-29T02:47:01.172Z,6.85
2023-04-29T02:52:03.217Z,7.32
2023-04-29T02:57:05.106Z,6.18
2023-04-29T03:02:07.442Z,8.95
2023-04-29T03:07:09.234Z,16.77
2023-04-29T03:12:12.045Z,14.80
2023-04-29T03:17:14.307Z,13.05
2023-04-29T03:22:17.586Z,11.52
2023-04-29T03:27:19.762Z,8.15
2023-04-29T03:32:21.617Z,4.50
2023-04-29T03:37:23.466Z,4.35
2023-04-29T03:42:32.076Z,3.60
2023-04-29T03:47:33.926Z,3.65
2023-04-29T03:52:38.754Z,3.97
2023-04-29T03:57:45.921Z,3.30
2023-04-29T04:02:49.427Z,3.67
2023-04-29T04:07:52.922Z,3.55
2023-04-29T04:13:21.078Z,3.83
2023-04-29T04:18:23.356Z,3.70
2023-04-29T04:23:25.321Z,4.25
2023-04-29T04:28:29.829Z,4.40
2023-04-29T04:33:36.554Z,4.32
2023-04-29T04:38:38.652Z,4.95
2023-04-29T04:43:45.530Z,6.57
2023-04-29T04:49:03.713Z,12.30
2023-04-29T04:54:09.609Z,13.07
2023-04-29T04:59:13.198Z,17.30
2023-04-29T05:04:15.798Z,19.95
2023-04-29T05:09:17.977Z,17.63
2023-04-29T05:14:20.883Z,17.60
2023-04-29T05:19:22.862Z,22.27
2023-04-29T05:24:24.853Z,19.98
2023-04-29T05:29:28.036Z,18.35
2023-04-29T05:34:34.014Z,19.10
2023-04-29T05:39:35.842Z,19.83
2023-04-29T05:44:44.951Z,16.85
2023-04-29T05:49:46.827Z,15.50
2023-04-29T05:54:48.996Z,15.50
2023-04-29T05:59:50.923Z,16.23
2023-04-29T06:04:53.291Z,15.25
2023-04-29T06:10:21.211Z,14.30
2023-04-29T06:15:24.418Z,14.93
2023-04-29T06:20:27.397Z,14.38
2023-04-29T06:25:29.142Z,14.38
2023-04-29T06:30:34.157Z,13.40
2023-04-29T06:35:41.017Z,15.07
2023-04-29T06:40:42.813Z,13.23
2023-04-29T06:46:03.115Z,13.80
2023-04-29T06:51:13.724Z,13.60
2023-04-29T06:56:16.953Z,14.73
2023-04-29T07:01:19.032Z,13.73
2023-04-29T07:06:20.788Z,14.82
2023-04-29T07:11:24.749Z,14.73
2023-04-29T07:16:28.188Z,15.48
2023-04-29T07:21:30.762Z,14.95
2023-04-29T07:26:32.631Z,15.27
2023-04-29T07:31:37.411Z,17.55
2023-04-29T07:36:39.957Z,15.93
2023-04-29T07:41:41.823Z,15.80
2023-04-29T07:46:43.556Z,12.48
2023-04-29T07:51:45.375Z,10.05
2023-04-29T07:56:47.095Z,9.65
2023-04-29T08:01:48.856Z,9.65
2023-04-29T08:06:50.842Z,8.82
2023-04-29T08:11:52.528Z,8.88
2023-04-29T08:16:55.415Z,9.95
2023-04-29T08:21:57.140Z,10.55
2023-04-29T08:26:59.284Z,9.73
2023-04-29T08:32:01.534Z,7.93
2023-04-29T08:37:03.325Z,9.70
2023-04-29T08:42:11.873Z,9.52
2023-04-29T08:47:14.906Z,10.93
2023-04-29T08:52:16.735Z,13.57
2023-04-29T08:57:18.541Z,11.60
2023-04-29T09:02:21.624Z,11.98
2023-04-29T09:07:24.553Z,11.63
2023-04-29T09:12:26.656Z,11.90
2023-04-29T09:17:48.360Z,13.48
2023-04-29T09:22:52.056Z,11.95
2023-04-29T09:27:55.660Z,16.80
2023-04-29T09:33:10.012Z,10.82
2023-04-29T09:38:15.842Z,11.15
2023-04-29T09:43:19.053Z,9.10
2023-04-29T09:48:20.739Z,10.13
2023-04-29T09:53:30.373Z,9.60
2023-04-29T09:58:38.132Z,10.25
2023-04-29T10:03:42.835Z,9.20
2023-04-29T10:08:46.468Z,10.35
2023-04-29T10:13:52.214Z,9.45
2023-04-29T10:18:56.350Z,10.38
2023-04-29T10:23:59.855Z,10.40
2023-04-29T10:29:04.282Z,10.13
2023-04-29T10:34:05.926Z,11.23
2023-04-29T10:39:13.749Z,11.45
2023-04-29T10:44:15.654Z,11.65
2023-04-29T10:49:17.664Z,12.77
2023-04-29T10:54:25.731Z,12.43
2023-04-29T10:59:33.360Z,12.95
2023-04-29T11:04:35.156Z,12.15
2023-04-29T11:09:38.738Z,9.38
2023-04-29T11:14:40.430Z,8.90
2023-04-29T11:19:53.353Z,9.43
2023-04-29T11:25:00.844Z,7.55
2023-04-29T11:30:05.366Z,6.57
2023-04-29T11:35:15.295Z,5.78
2023-04-29T11:40:17.442Z,5.40
2023-04-29T11:45:19.577Z,6.40
2023-04-29T11:50:21.309Z,7.05
2023-04-29T11:55:23.075Z,5.45
2023-04-29T12:00:27.878Z,5.63
2023-04-29T12:05:30.207Z,5.13
2023-04-29T12:10:32.681Z,5.43
2023-04-29T12:15:35.482Z,5.07
2023-04-29T12:20:39.344Z,6.30
2023-04-29T12:25:44.455Z,7.78
2023-04-29T12:30:50.723Z,8.45
2023-04-29T12:35:55.310Z,9.48
2023-04-29T12:41:00.989Z,8.50
2023-04-29T12:46:04.163Z,7.47
2023-04-29T12:51:06.013Z,7.47
2023-04-29T12:56:08.437Z,8.10
2023-04-29T13:06:11.874Z,9.57
2023-04-29T13:11:13.707Z,9.95
2023-04-29T13:16:15.875Z,10.57
2023-04-29T13:21:17.662Z,12.95
2023-04-29T13:26:19.386Z,12.98
2023-04-29T13:31:21.353Z,14.10
2023-04-29T13:36:23.142Z,14.93
2023-04-29T13:41:26.723Z,15.52
2023-04-29T13:46:31.258Z,16.63
2023-04-29T13:52:20.336Z,18.98
2023-04-29T13:57:47.485Z,19.35
2023-04-29T14:02:25.136Z,19.60
2023-04-29T14:07:27.904Z,18.95
2023-04-29T14:12:29.630Z,18.02
2023-04-29T14:17:31.472Z,17.58
2023-04-29T14:22:33.321Z,16.42
2023-04-29T14:27:36.826Z,17.52
2023-04-29T14:32:38.622Z,17.85
2023-04-29T14:37:40.470Z,17.38
2023-04-29T14:42:42.303Z,17.33
2023-04-29T14:47:44.385Z,17.00
2023-04-29T14:52:46.402Z,16.60
2023-04-29T14:57:48.129Z,16.67
2023-04-29T15:02:50.869Z,16.40
2023-04-29T15:07:52.808Z,16.13
2023-04-29T15:12:55.111Z,16.45
2023-04-29T15:17:56.981Z,16.73
2023-04-29T15:22:58.822Z,17.70
2023-04-29T15:28:01.668Z,16.02
2023-04-29T15:33:04.653Z,15.98
2023-04-29T15:38:07.126Z,15.57
2023-04-29T15:43:09.026Z,16.83
2023-04-29T15:48:10.729Z,16.92
2023-04-29T15:53:13.045Z,16.23
2023-04-29T15:58:15.009Z,16.67
2023-04-29T16:03:16.893Z,18.98
2023-04-29T16:08:18.796Z,18.10
2023-04-29T16:13:21.870Z,17.00
2023-04-29T16:18:23.780Z,18.15
2023-04-29T16:23:25.546Z,17.33
2023-04-29T16:28:28.226Z,17.25
2023-04-29T16:33:30.456Z,17.25
2023-04-29T16:38:32.201Z,17.13
2023-04-29T16:43:34.453Z,16.60
2023-04-29T16:48:36.313Z,15.27
2023-04-29T16:53:38.322Z,15.63
2023-04-29T16:58:40.093Z,15.32
2023-04-29T17:03:48.097Z,16.33
2023-04-29T17:08:51.559Z,14.98
2023-04-29T17:13:53.568Z,14.13
2023-04-29T17:18:55.271Z,15.38
2023-04-29T17:23:57.052Z,17.20
2023-04-29T17:28:59.123Z,17.55
2023-04-29T17:34:18.291Z,14.38
2023-04-29T17:39:20.366Z,12.93
2023-04-29T17:44:23.661Z,14.23
2023-04-29T17:49:26.526Z,14.85
2023-04-29T17:54:29.285Z,13.30
2023-04-29T17:59:31.090Z,14.00
2023-04-29T18:04:32.798Z,12.43
2023-04-29T18:09:34.869Z,12.68
2023-04-29T18:14:36.597Z,12.95
2023-04-29T18:19:38.345Z,12.15
2023-04-29T18:24:39.988Z,13.05
2023-04-29T18:29:41.641Z,12.02
2023-04-29T18:34:43.339Z,12.05
2023-04-29T18:39:45.102Z,12.57
2023-04-29T18:44:48.281Z,12.63
2023-04-29T18:49:49.958Z,12.18
2023-04-29T18:54:51.941Z,12.13
2023-04-29T18:59:54.346Z,12.48
2023-04-29T19:04:56.221Z,12.32
2023-04-29T19:09:57.931Z,12.55
2023-04-29T19:15:00.413Z,12.52
2023-04-29T19:20:02.088Z,11.80
2023-04-29T19:25:05.162Z,12.05
2023-04-29T19:30:07.692Z,12.35
2023-04-29T19:35:09.680Z,11.63
2023-04-29T19:40:11.753Z,11.85
2023-04-29T19:45:13.670Z,11.82
2023-04-29T19:50:15.689Z,11.35
2023-04-29T19:55:17.497Z,13.38
2023-04-29T20:00:19.442Z,15.13
2023-04-29T20:05:21.310Z,13.90
2023-04-29T20:10:23.097Z,14.57
2023-04-29T20:15:24.892Z,14.30
2023-04-29T20:20:26.888Z,14.18
2023-04-29T20:25:28.659Z,13.13
2023-04-29T20:30:30.565Z,13.25
2023-04-29T20:35:32.824Z,12.77
2023-04-29T20:40:34.985Z,13.25
2023-04-29T20:45:38.871Z,14.00
2023-04-29T20:50:40.491Z,12.82
2023-04-29T20:55:42.130Z,13.32
2023-04-29T21:00:43.816Z,13.60
2023-04-29T21:05:45.516Z,13.07
2023-04-29T21:10:47.386Z,12.93
2023-04-29T21:15:49.122Z,13.45
2023-04-29T21:20:51.261Z,13.57
2023-04-29T21:25:52.941Z,12.85
2023-04-29T21:30:54.697Z,12.65
2023-04-29T21:35:56.471Z,12.32
2023-04-29T21:40:59.416Z,14.68
2023-04-29T21:46:01.353Z,13.05
2023-04-29T21:51:05.185Z,12.63
2023-04-29T21:56:07.178Z,13.23
2023-04-29T22:01:39.726Z,13.70
2023-04-29T22:06:41.787Z,14.00
2023-04-29T22:11:43.959Z,13.98
2023-04-29T22:16:45.656Z,13.57
2023-04-29T22:21:47.604Z,13.75
2023-04-29T22:26:49.386Z,13.65
2023-04-29T22:31:51.099Z,13.57
2023-04-29T22:36:52.808Z,15.57
2023-04-29T22:41:54.465Z,13.57
2023-04-29T22:46:56.284Z,13.98
2023-04-29T22:51:57.988Z,14.60
2023-04-29T22:56:59.681Z,14.55
2023-04-29T23:02:01.529Z,14.73
2023-04-29T23:07:03.284Z,14.13
2023-04-29T23:12:05.290Z,14.57
2023-04-29T23:17:07.244Z,14.57
2023-04-29T23:22:08.971Z,13.93
2023-04-29T23:27:11.380Z,14.00
2023-04-29T23:32:13.004Z,14.20
2023-04-29T23:37:14.728Z,15.05
2023-04-29T23:42:16.463Z,13.02
2023-04-29T23:47:18.107Z,14.45
2023-04-29T23:52:19.926Z,13.93
2023-04-29T23:57:21.564Z,13.98
